Time;durP1;ratioP1;P1;durP2;ratioP2;P2;SDS_P1;SDS_P2;PMS_P1;PMS_P2;Temp;Humidity;BMP_temperature;BMP_pressure;BME280_temperature;BME280_humidity;BME280_pressure;Samples;Min_cycle;Max_cycle;Signal;HPM_P1;HPM_P2
2023/07/13 00:00:16;;;;;;;4.20;2.80;;;19.60;67.20;;;;;;5205508;28;20414;-43
2023/07/13 00:02:47;;;;;;;8.73;3.50;;;19.60;67.60;;;;;;5188430;28;20453;-44
2023/07/13 00:05:17;;;;;;;3.13;2.93;;;19.50;68.00;;;;;;5179288;28;20201;-44
2023/07/13 00:07:51;;;;;;;7.13;3.40;;;19.40;68.20;;;;;;5208935;28;20225;-44
2023/07/13 00:10:22;;;;;;;4.90;2.53;;;19.40;68.50;;;;;;5205706;28;20266;-44
2023/07/13 00:12:54;;;;;;;3.80;3.33;;;19.40;68.60;;;;;;5186245;28;20507;-44
2023/07/13 00:15:26;;;;;;;6.47;2.53;;;19.30;69.00;;;;;;5207490;28;20171;-43
2023/07/13 00:17:57;;;;;;;3.23;2.70;;;19.30;68.90;;;;;;5205901;28;20493;-44
2023/07/13 00:20:27;;;;;;;5.50;3.30;;;19.30;69.30;;;;;;5202810;28;20636;-43
2023/07/13 00:22:58;;;;;;;4.00;2.37;;;19.20;69.40;;;;;;5196832;28;20287;-43
2023/07/13 00:25:29;;;;;;;9.23;2.40;;;19.20;69.80;;;;;;5192451;28;20297;-43
2023/07/13 00:27:59;;;;;;;3.70;2.50;;;19.10;70.30;;;;;;5190100;28;20204;-43
2023/07/13 00:30:30;;;;;;;1.93;1.83;;;19.10;70.60;;;;;;5211188;28;20184;-44
2023/07/13 00:33:01;;;;;;;3.07;1.70;;;19.10;70.60;;;;;;5189936;28;20211;-43
2023/07/13 00:35:33;;;;;;;2.00;2.00;;;19.10;71.10;;;;;;5195756;28;20183;-43
2023/07/13 00:38:03;;;;;;;3.40;2.20;;;19.10;71.50;;;;;;5208112;28;20433;-43
2023/07/13 00:40:34;;;;;;;2.33;2.13;;;19.00;71.50;;;;;;5178174;28;20443;-44
2023/07/13 00:43:23;;;;;;;4.17;2.37;;;19.00;71.90;;;;;;5201821;28;20214;-44
2023/07/13 00:45:53;;;;;;;2.40;2.20;;;19.00;72.20;;;;;;5202177;28;20176;-44
2023/07/13 00:48:28;;;;;;;2.83;2.60;;;19.00;72.90;;;;;;5211357;28;20454;-43
2023/07/13 00:51:01;;;;;;;2.00;1.80;;;19.00;73.30;;;;;;5206843;28;20183;-43
2023/07/13 00:53:33;;;;;;;2.63;1.67;;;18.90;74.00;;;;;;5199634;28;20813;-45
2023/07/13 00:56:04;;;;;;;5.10;1.90;;;18.90;74.50;;;;;;5178901;28;20475;-44
2023/07/13 00:58:35;;;;;;;2.50;1.90;;;18.80;74.80;;;;;;5199121;28;20492;-43
2023/07/13 01:01:06;;;;;;;7.83;2.03;;;18.70;75.80;;;;;;5188274;28;20845;-44
2023/07/13 01:03:37;;;;;;;2.40;1.77;;;18.60;77.10;;;;;;5181777;28;20258;-44
2023/07/13 01:06:09;;;;;;;1.90;1.80;;;18.60;77.70;;;;;;5207071;28;20187;-43
2023/07/13 01:08:40;;;;;;;6.90;2.17;;;18.50;78.20;;;;;;5205515;28;20869;-44
2023/07/13 01:11:10;;;;;;;3.70;2.10;;;18.50;80.00;;;;;;5190901;28;20442;-43
2023/07/13 01:13:41;;;;;;;4.27;2.97;;;18.40;81.00;;;;;;5193737;28;20200;-43
2023/07/13 01:16:21;;;;;;;6.23;2.17;;;18.40;82.30;;;;;;5188342;28;20582;-45
2023/07/13 01:18:53;;;;;;;4.20;2.00;;;18.40;83.20;;;;;;5183469;28;20200;-43
2023/07/13 01:21:23;;;;;;;2.90;2.70;;;18.40;84.30;;;;;;5174163;28;20415;-43
2023/07/13 01:23:54;;;;;;;3.87;2.50;;;18.40;85.80;;;;;;5202159;28;20496;-44
2023/07/13 01:26:26;;;;;;;2.13;2.00;;;18.40;87.00;;;;;;5200705;28;20184;-43
2023/07/13 01:28:56;;;;;;;1.97;1.87;;;18.40;87.00;;;;;;5180862;28;20463;-44
2023/07/13 01:31:27;;;;;;;2.50;2.30;;;18.30;87.90;;;;;;5203782;28;20439;-44
2023/07/13 01:33:57;;;;;;;2.20;2.00;;;18.30;89.30;;;;;;5189525;28;20204;-43
2023/07/13 01:36:28;;;;;;;2.90;2.53;;;18.30;90.10;;;;;;5208541;28;20179;-43
2023/07/13 01:38:58;;;;;;;4.50;2.43;;;18.30;90.60;;;;;;5209383;28;20186;-43
2023/07/13 01:41:29;;;;;;;3.13;2.37;;;18.30;91.20;;;;;;5205646;28;20662;-44
2023/07/13 01:44:00;;;;;;;4.83;1.80;;;18.20;91.80;;;;;;5204215;28;20210;-42
2023/07/13 01:46:30;;;;;;;6.30;2.80;;;18.20;92.50;;;;;;5182252;28;20561;-43
2023/07/13 01:49:02;;;;;;;5.90;2.97;;;18.20;93.10;;;;;;5204864;28;20208;-44
2023/07/13 01:51:32;;;;;;;7.63;4.80;;;18.20;93.80;;;;;;5202539;28;20175;-43
2023/07/13 01:54:03;;;;;;;3.90;2.40;;;18.20;94.60;;;;;;5210285;28;20472;-43
2023/07/13 01:56:34;;;;;;;4.10;2.40;;;18.10;95.00;;;;;;5189508;28;20179;-43
2023/07/13 01:59:04;;;;;;;2.67;2.47;;;18.10;95.50;;;;;;5202228;28;20238;-42
2023/07/13 02:01:35;;;;;;;1.97;1.87;;;18.10;95.70;;;;;;5201079;28;20188;-45
2023/07/13 02:04:06;;;;;;;4.00;2.60;;;18.10;96.20;;;;;;5185790;28;20254;-43
2023/07/13 02:06:36;;;;;;;3.43;3.20;;;18.00;97.00;;;;;;5182926;28;20186;-42
2023/07/13 02:09:07;;;;;;;5.10;3.03;;;18.10;97.70;;;;;;5199539;28;20207;-45
2023/07/13 02:11:38;;;;;;;2.27;2.13;;;18.10;98.00;;;;;;5190098;28;20683;-44
2023/07/13 02:14:08;;;;;;;4.40;2.43;;;18.20;98.10;;;;;;5205472;28;20519;-43
2023/07/13 02:16:39;;;;;;;3.40;2.07;;;18.20;98.20;;;;;;5185154;28;20187;-44
2023/07/13 02:19:09;;;;;;;2.07;1.97;;;18.30;98.50;;;;;;5203109;28;20200;-43
2023/07/13 02:21:40;;;;;;;3.23;2.20;;;18.30;98.70;;;;;;5199114;28;20211;-44
2023/07/13 02:24:17;;;;;;;2.43;2.23;;;18.40;98.90;;;;;;5200701;28;20310;-43
2023/07/13 02:26:48;;;;;;;3.90;2.37;;;18.40;98.90;;;;;;5190691;28;20190;-43
2023/07/13 02:29:18;;;;;;;5.10;2.03;;;18.40;99.20;;;;;;5189803;28;20466;-43
2023/07/13 02:31:49;;;;;;;3.53;2.70;;;18.30;99.30;;;;;;5189639;28;20184;-43
2023/07/13 02:34:20;;;;;;;2.63;2.33;;;18.30;99.90;;;;;;5201849;28;20210;-43
2023/07/13 02:36:50;;;;;;;1.67;1.57;;;18.30;99.70;;;;;;5207194;28;20168;-43
2023/07/13 02:39:21;;;;;;;3.53;2.40;;;18.30;99.40;;;;;;5201783;28;20183;-44
2023/07/13 02:41:52;;;;;;;3.43;2.43;;;18.30;99.30;;;;;;5189307;28;20213;-43
2023/07/13 02:44:22;;;;;;;3.00;1.90;;;18.40;99.20;;;;;;5206102;28;20207;-43
2023/07/13 02:46:53;;;;;;;1.40;1.40;;;18.30;99.30;;;;;;5181587;28;20268;-43
2023/07/13 02:49:23;;;;;;;1.90;1.80;;;18.30;99.30;;;;;;5205671;28;20218;-44
2023/07/13 02:51:54;;;;;;;3.37;1.80;;;18.20;99.60;;;;;;5207415;28;20222;-43
2023/07/13 02:54:25;;;;;;;5.03;2.80;;;18.20;99.90;;;;;;5202595;28;20227;-43
2023/07/13 02:56:56;;;;;;;3.90;2.83;;;18.20;99.90;;;;;;5199325;28;20186;-43
2023/07/13 02:59:26;;;;;;;6.53;3.00;;;18.10;99.90;;;;;;5179404;28;20230;-44
2023/07/13 03:01:57;;;;;;;2.37;2.00;;;18.10;99.90;;;;;;5178134;28;20588;-44
2023/07/13 03:04:27;;;;;;;2.67;2.47;;;18.10;99.90;;;;;;5189829;28;20312;-43
2023/07/13 03:06:58;;;;;;;4.57;2.90;;;18.10;99.90;;;;;;5189079;28;20187;-43
2023/07/13 03:09:30;;;;;;;3.10;2.90;;;18.10;99.90;;;;;;5188727;28;20313;-44
2023/07/13 03:12:00;;;;;;;4.20;3.23;;;18.20;99.90;;;;;;5203156;28;20175;-43
2023/07/13 03:14:31;;;;;;;4.47;3.57;;;18.20;99.90;;;;;;5195509;28;20520;-44
2023/07/13 03:17:02;;;;;;;3.20;2.83;;;18.20;99.90;;;;;;5180394;28;20192;-43
2023/07/13 03:19:32;;;;;;;3.60;3.17;;;18.30;99.90;;;;;;5194537;28;20729;-43
2023/07/13 03:22:03;;;;;;;3.67;3.37;;;18.20;99.90;;;;;;5204719;28;20489;-43
2023/07/13 03:24:34;;;;;;;3.07;2.83;;;18.20;99.90;;;;;;5178157;28;20207;-43
2023/07/13 03:27:06;;;;;;;3.03;2.23;;;18.30;99.90;;;;;;5207250;28;20187;-43
2023/07/13 03:29:36;;;;;;;2.60;2.50;;;18.30;99.90;;;;;;5186393;28;20875;-43
2023/07/13 03:32:07;;;;;;;3.43;3.20;;;18.30;99.90;;;;;;5203752;28;20443;-43
2023/07/13 03:34:38;;;;;;;6.03;2.73;;;18.30;99.90;;;;;;5205041;28;20211;-43
2023/07/13 03:37:09;;;;;;;2.63;2.10;;;18.30;99.90;;;;;;5205749;28;20426;-43
2023/07/13 03:39:39;;;;;;;3.13;1.80;;;18.30;99.90;;;;;;5192817;28;20207;-43
2023/07/13 03:42:10;;;;;;;5.13;3.27;;;18.40;99.90;;;;;;5212932;28;20249;-43
2023/07/13 03:44:42;;;;;;;2.20;2.00;;;18.50;99.90;;;;;;5205590;28;20203;-43
2023/07/13 03:47:12;;;;;;;3.40;2.50;;;18.60;99.90;;;;;;5200074;28;20628;-43
2023/07/13 03:49:43;;;;;;;4.63;2.40;;;18.70;99.90;;;;;;5171434;28;20482;-43
2023/07/13 03:52:13;;;;;;;3.20;2.80;;;18.70;99.90;;;;;;5188452;28;20255;-44
2023/07/13 03:54:44;;;;;;;1.93;1.83;;;18.70;99.90;;;;;;5201141;28;20247;-43
2023/07/13 03:57:15;;;;;;;3.57;2.60;;;18.60;99.90;;;;;;5192703;28;20187;-43
2023/07/13 03:59:45;;;;;;;2.80;2.60;;;18.60;99.90;;;;;;5206757;28;20615;-43
2023/07/13 04:02:17;;;;;;;4.00;2.60;;;18.50;99.90;;;;;;5192857;28;20192;-44
2023/07/13 04:04:48;;;;;;;3.17;2.33;;;18.40;99.90;;;;;;5185482;28;20208;-44
2023/07/13 04:07:18;;;;;;;3.53;2.40;;;18.40;99.90;;;;;;5207233;28;20444;-44
2023/07/13 04:09:49;;;;;;;3.53;2.70;;;18.50;99.90;;;;;;5203351;28;20210;-45
2023/07/13 04:12:20;;;;;;;5.20;2.43;;;18.50;99.90;;;;;;5201991;28;20191;-44
2023/07/13 04:14:50;;;;;;;9.30;2.70;;;18.60;99.90;;;;;;5208946;28;20219;-43
2023/07/13 04:17:21;;;;;;;2.80;2.60;;;18.60;99.90;;;;;;5206545;28;20206;-44
2023/07/13 04:19:51;;;;;;;3.30;2.13;;;18.70;99.90;;;;;;5187165;28;20184;-43
2023/07/13 04:22:22;;;;;;;6.07;2.87;;;18.70;99.90;;;;;;5209116;28;20246;-44
2023/07/13 04:24:53;;;;;;;9.47;2.70;;;18.80;99.90;;;;;;5205322;28;20216;-43
2023/07/13 04:27:23;;;;;;;2.27;2.07;;;18.90;99.90;;;;;;5191165;28;20241;-44
2023/07/13 04:29:54;;;;;;;3.80;2.30;;;19.00;99.90;;;;;;5174793;28;20242;-44
2023/07/13 04:32:24;;;;;;;3.10;2.43;;;19.10;99.90;;;;;;5205252;28;20246;-44
2023/07/13 04:34:57;;;;;;;4.60;1.90;;;19.10;99.90;;;;;;5187837;28;20590;-43
2023/07/13 04:37:29;;;;;;;2.80;2.33;;;19.20;99.90;;;;;;5209723;28;20183;-43
2023/07/13 04:39:59;;;;;;;2.83;2.60;;;19.30;99.90;;;;;;5215267;28;20803;-43
2023/07/13 04:42:30;;;;;;;2.97;2.20;;;19.30;99.90;;;;;;5202219;28;20445;-44
2023/07/13 04:45:01;;;;;;;6.30;2.70;;;19.30;99.90;;;;;;5204919;28;20218;-44
2023/07/13 04:47:31;;;;;;;7.20;2.87;;;19.40;99.90;;;;;;5176420;28;20283;-44
2023/07/13 04:50:02;;;;;;;3.17;2.00;;;19.40;99.90;;;;;;5207875;28;20579;-44
2023/07/13 04:52:33;;;;;;;3.03;1.90;;;19.50;99.90;;;;;;5205723;28;20188;-44
2023/07/13 04:55:04;;;;;;;4.90;1.93;;;19.70;99.90;;;;;;5191718;28;20800;-44
2023/07/13 04:57:35;;;;;;;3.50;2.20;;;20.20;99.80;;;;;;5198913;28;20188;-44
2023/07/13 05:00:07;;;;;;;1.80;1.70;;;20.80;97.90;;;;;;5183978;28;20533;-44
2023/07/13 05:02:38;;;;;;;2.73;1.83;;;21.60;96.20;;;;;;5196621;28;20180;-44
2023/07/13 05:05:09;;;;;;;7.10;1.87;;;22.20;94.00;;;;;;5202514;28;20825;-42
2023/07/13 05:07:40;;;;;;;2.93;1.80;;;22.50;92.20;;;;;;5189713;28;20527;-43
2023/07/13 05:10:10;;;;;;;2.87;1.63;;;22.80;91.20;;;;;;5192176;28;20199;-45
2023/07/13 05:12:41;;;;;;;2.00;1.90;;;23.10;90.30;;;;;;5205363;28;20180;-43
2023/07/13 05:15:12;;;;;;;2.43;1.63;;;23.40;87.50;;;;;;5203024;28;20172;-43
2023/07/13 05:17:43;;;;;;;2.33;1.97;;;23.70;84.70;;;;;;5182050;28;21073;-43
2023/07/13 05:20:14;;;;;;;1.60;1.50;;;24.10;81.00;;;;;;5182457;28;20223;-43
2023/07/13 05:22:46;;;;;;;3.80;1.77;;;24.70;77.40;;;;;;5201772;28;20254;-45
2023/07/13 05:25:17;;;;;;;9.07;2.10;;;25.20;73.70;;;;;;5189820;28;20926;-44
2023/07/13 05:27:48;;;;;;;4.23;1.83;;;25.50;71.10;;;;;;5190594;28;20480;-43
2023/07/13 05:30:19;;;;;;;1.83;1.73;;;26.10;68.90;;;;;;5190199;28;20322;-44
2023/07/13 05:32:49;;;;;;;3.07;1.87;;;26.80;65.10;;;;;;5199155;28;20188;-44
2023/07/13 05:35:20;;;;;;;1.40;1.40;;;28.20;59.10;;;;;;5194093;28;20208;-43
2023/07/13 05:37:50;;;;;;;1.67;1.57;;;29.70;54.50;;;;;;5202711;28;20183;-44
2023/07/13 05:40:21;;;;;;;2.73;1.50;;;30.90;50.10;;;;;;5201004;28;20602;-45
2023/07/13 05:42:52;;;;;;;1.83;1.57;;;31.90;46.40;;;;;;5180001;28;20192;-44
2023/07/13 05:45:22;;;;;;;4.37;1.57;;;32.20;44.40;;;;;;5194164;28;20191;-44
2023/07/13 05:47:53;;;;;;;1.90;1.60;;;32.30;43.90;;;;;;5186205;28;20659;-43
2023/07/13 05:50:24;;;;;;;2.07;1.60;;;32.90;42.50;;;;;;5184870;28;20203;-43
2023/07/13 05:52:54;;;;;;;2.20;2.00;;;34.10;40.70;;;;;;5203709;28;20176;-44
2023/07/13 05:55:25;;;;;;;1.80;1.70;;;34.60;38.90;;;;;;5205036;28;20508;-44
2023/07/13 05:57:57;;;;;;;3.03;1.40;;;35.00;37.60;;;;;;5205215;28;20204;-44
2023/07/13 06:00:28;;;;;;;2.40;1.50;;;35.40;36.70;;;;;;5177358;28;20179;-43
2023/07/13 06:02:59;;;;;;;2.20;1.53;;;35.60;36.30;;;;;;5207075;28;20214;-44
2023/07/13 06:05:29;;;;;;;6.53;1.63;;;35.50;35.80;;;;;;5186510;28;20282;-43
2023/07/13 06:08:00;;;;;;;3.37;1.60;;;35.10;36.70;;;;;;5169528;28;20548;-43
2023/07/13 06:10:34;;;;;;;10.80;1.97;;;35.40;35.80;;;;;;5206548;28;20211;-44
2023/07/13 06:13:05;;;;;;;2.15;1.27;;;35.90;35.40;;;;;;5185192;28;20228;-44
2023/07/13 06:15:35;;;;;;;1.60;1.52;;;36.80;34.40;;;;;;5207665;28;20186;-43
2023/07/13 06:18:06;;;;;;;1.92;1.40;;;37.60;33.20;;;;;;5193138;28;20191;-44
2023/07/13 06:20:37;;;;;;;1.23;1.23;;;37.60;32.30;;;;;;5188207;28;20186;-43
2023/07/13 06:23:07;;;;;;;4.78;1.13;;;37.90;32.40;;;;;;5205122;28;20205;-44
2023/07/13 06:25:39;;;;;;;1.88;1.65;;;38.10;31.40;;;;;;5183100;28;20186;-44
2023/07/13 06:28:10;;;;;;;4.00;1.20;;;38.10;31.10;;;;;;5208442;28;20258;-44
2023/07/13 06:30:40;;;;;;;1.52;1.35;;;37.50;31.20;;;;;;5177134;28;20321;-45
2023/07/13 06:33:11;;;;;;;3.28;1.50;;;37.60;31.20;;;;;;5198431;28;20214;-43
2023/07/13 06:35:42;;;;;;;1.77;1.67;;;37.10;31.30;;;;;;5178447;28;20188;-44
2023/07/13 06:38:13;;;;;;;2.47;2.00;;;37.30;31.70;;;;;;5187643;28;20179;-44
2023/07/13 06:40:44;;;;;;;3.90;1.58;;;37.50;31.50;;;;;;5204515;28;20183;-45
2023/07/13 06:43:14;;;;;;;3.00;1.50;;;38.10;30.70;;;;;;5213262;28;20291;-44
2023/07/13 06:45:49;;;;;;;1.55;1.45;;;38.30;30.20;;;;;;5206970;28;20188;-45
2023/07/13 06:48:20;;;;;;;2.33;2.13;;;37.20;30.90;;;;;;5188733;28;20228;-45
2023/07/13 06:50:51;;;;;;;3.63;1.58;;;36.70;31.40;;;;;;5200894;28;20647;-44
2023/07/13 06:53:22;;;;;;;2.53;1.55;;;35.80;32.30;;;;;;5198706;28;20204;-44
2023/07/13 06:55:53;;;;;;;4.13;1.23;;;35.50;33.00;;;;;;5204847;28;20183;-44
2023/07/13 06:58:23;;;;;;;1.63;1.30;;;35.20;33.20;;;;;;5178964;28;20248;-44
2023/07/13 07:00:54;;;;;;;1.42;1.27;;;35.70;33.10;;;;;;5209923;28;20183;-43
2023/07/13 07:03:25;;;;;;;3.05;1.27;;;37.00;32.00;;;;;;5207011;28;20205;-44
2023/07/13 07:06:11;;;;;;;1.33;1.20;;;38.20;30.40;;;;;;5180745;28;20182;-44
2023/07/13 07:08:42;;;;;;;1.02;1.02;;;39.00;29.50;;;;;;5202249;28;20691;-43
2023/07/13 07:11:16;;;;;;;2.72;1.63;;;39.30;29.00;;;;;;5206570;28;20202;-44
2023/07/13 07:13:47;;;;;;;10.40;1.48;;;39.50;28.40;;;;;;5206203;28;20202;-44
2023/07/13 07:16:18;;;;;;;3.30;1.10;;;39.70;28.40;;;;;;5214537;28;20182;-43
2023/07/13 07:18:49;;;;;;;0.93;0.93;;;39.80;28.10;;;;;;5179319;28;20673;-45
2023/07/13 07:21:22;;;;;;;1.73;1.52;;;38.60;28.30;;;;;;5212764;28;20278;-43
2023/07/13 07:23:53;;;;;;;1.42;1.42;;;39.00;28.50;;;;;;5187770;28;20200;-45
2023/07/13 07:26:23;;;;;;;3.00;1.77;;;39.50;28.30;;;;;;5188191;28;20204;-43
2023/07/13 07:28:54;;;;;;;9.02;4.70;;;39.80;27.50;;;;;;5193353;28;20203;-44
2023/07/13 07:31:25;;;;;;;3.10;1.98;;;40.30;27.30;;;;;;5193698;28;20186;-44
2023/07/13 07:33:55;;;;;;;1.38;1.27;;;39.00;27.40;;;;;;5212357;28;20214;-44
2023/07/13 07:36:27;;;;;;;0.95;0.90;;;36.70;29.40;;;;;;5181543;28;20211;-43
2023/07/13 07:38:58;;;;;;;1.30;1.20;;;34.50;31.70;;;;;;5191445;28;20206;-43
2023/07/13 07:41:29;;;;;;;1.40;1.30;;;32.70;34.00;;;;;;5183753;28;20195;-44
2023/07/13 07:43:59;;;;;;;13.63;1.00;;;31.40;35.20;;;;;;5191597;28;20204;-45
2023/07/13 07:46:30;;;;;;;1.70;1.10;;;30.70;37.10;;;;;;5192746;28;20199;-44
2023/07/13 07:49:01;;;;;;;1.60;1.07;;;30.20;38.10;;;;;;5167540;28;20228;-45
2023/07/13 07:51:32;;;;;;;2.53;2.23;;;29.10;38.50;;;;;;5195649;28;20183;-43
2023/07/13 07:54:04;;;;;;;3.20;1.70;;;28.50;40.40;;;;;;5209939;28;20476;-44
2023/07/13 07:56:34;;;;;;;1.27;1.17;;;27.50;41.90;;;;;;5207168;28;20687;-44
2023/07/13 07:59:05;;;;;;;1.43;1.37;;;27.10;43.10;;;;;;5209352;28;20442;-43
2023/07/13 08:01:36;;;;;;;1.20;1.10;;;26.70;43.50;;;;;;5188125;28;20730;-44
2023/07/13 08:04:07;;;;;;;1.50;1.40;;;26.40;44.50;;;;;;5202786;28;20274;-45
2023/07/13 08:06:37;;;;;;;3.03;1.23;;;26.20;44.90;;;;;;5180819;28;20549;-44
2023/07/13 08:09:08;;;;;;;2.93;1.30;;;26.20;45.60;;;;;;5208466;28;20270;-43
2023/07/13 08:11:39;;;;;;;4.77;2.30;;;26.20;45.20;;;;;;5206633;28;20214;-43
2023/07/13 08:14:09;;;;;;;3.43;1.20;;;26.60;45.50;;;;;;5205871;28;20212;-44
2023/07/13 08:16:40;;;;;;;1.63;1.53;;;27.30;44.90;;;;;;5191587;28;20233;-44
2023/07/13 08:19:11;;;;;;;8.60;1.00;;;28.30;42.80;;;;;;5190594;28;20194;-43
2023/07/13 08:21:43;;;;;;;4.53;1.60;;;28.40;42.60;;;;;;5198467;28;20214;-46
2023/07/13 08:24:13;;;;;;;2.40;1.77;;;28.90;42.30;;;;;;5206607;28;20199;-43
2023/07/13 08:26:46;;;;;;;7.13;1.17;;;29.30;41.00;;;;;;5207863;28;20500;-44
2023/07/13 08:29:16;;;;;;;7.50;1.20;;;29.00;40.60;;;;;;5199635;28;20247;-43
2023/07/13 08:31:47;;;;;;;2.70;1.20;;;28.60;40.80;;;;;;5202173;28;20446;-44
2023/07/13 08:34:17;;;;;;;3.17;1.87;;;28.70;41.10;;;;;;5190640;28;20687;-42
2023/07/13 08:36:48;;;;;;;10.03;1.33;;;29.10;40.90;;;;;;5183305;28;20183;-43
2023/07/13 08:39:19;;;;;;;4.77;1.30;;;29.20;40.00;;;;;;5198154;28;20220;-43
2023/07/13 08:41:54;;;;;;;1.27;1.20;;;29.30;39.90;;;;;;5200068;28;20633;-43
2023/07/13 08:44:54;;;;;;;1.10;1.10;;;29.60;40.50;;;;;;5205418;28;20575;-44
2023/07/13 08:47:27;;;;;;;1.57;1.57;;;30.10;39.10;;;;;;5198445;28;20439;-45
2023/07/13 08:49:59;;;;;;;1.50;1.40;;;29.80;39.40;;;;;;5206680;28;20450;-44
2023/07/13 08:52:39;;;;;;;1.30;1.13;;;29.40;40.20;;;;;;5187064;28;20433;-44
2023/07/13 08:55:16;;;;;;;2.40;1.10;;;28.90;41.00;;;;;;5200569;28;20437;-44
2023/07/13 08:57:56;;;;;;;1.70;1.30;;;27.50;42.00;;;;;;5191305;28;20438;-44
2023/07/13 09:00:44;;;;;;;1.03;1.03;;;26.90;43.40;;;;;;5186332;28;20562;-45
2023/07/13 09:03:43;;;;;;;2.20;1.47;;;27.20;43.70;;;;;;5184975;28;20462;-47
2023/07/13 09:06:15;;;;;;;1.10;1.10;;;27.70;42.60;;;;;;5196721;28;20438;-44
2023/07/13 09:08:59;;;;;;;1.60;1.00;;;28.10;42.00;;;;;;5171860;28;20454;-43
2023/07/13 09:11:58;;;;;;;3.53;0.80;;;28.30;41.70;;;;;;5187204;28;20439;-44
2023/07/13 09:14:50;;;;;;;2.00;1.13;;;28.30;41.30;;;;;;5190068;28;20558;-45
2023/07/13 09:17:26;;;;;;;3.93;1.07;;;28.30;41.40;;;;;;5188983;28;20926;-43
2023/07/13 09:20:09;;;;;;;2.60;0.90;;;28.50;41.00;;;;;;5200689;28;20419;-45
2023/07/13 09:22:41;;;;;;;1.70;1.03;;;28.60;40.40;;;;;;5198589;28;20863;-45
2023/07/13 09:25:32;;;;;;;3.33;1.43;;;28.30;39.30;;;;;;5203333;28;20446;-44
2023/07/13 09:28:17;;;;;;;1.40;1.10;;;27.80;39.70;;;;;;5204902;28;20596;-43
2023/07/13 09:31:03;;;;;;;9.97;5.33;;;27.60;39.60;;;;;;5196835;28;20442;-43
2023/07/13 09:33:34;;;;;;;13.53;8.47;;;27.00;38.40;;;;;;5191101;28;20443;-44
2023/07/13 09:36:32;;;;;;;5.90;2.57;;;26.40;41.80;;;;;;5189689;28;20467;-44
2023/07/13 09:39:11;;;;;;;1.27;1.20;;;26.40;42.40;;;;;;5196126;28;20469;-44
2023/07/13 09:42:11;;;;;;;1.90;1.07;;;26.50;42.40;;;;;;5203259;28;20428;-43
2023/07/13 09:44:47;;;;;;;1.07;1.03;;;26.10;40.40;;;;;;5201287;28;20821;-43
2023/07/13 09:47:25;;;;;;;1.23;1.03;;;26.20;41.70;;;;;;5191740;28;20835;-44
2023/07/13 09:50:17;;;;;;;2.83;1.50;;;26.40;41.50;;;;;;5207731;28;20549;-43
2023/07/13 09:52:49;;;;;;;1.60;1.27;;;26.60;41.20;;;;;;5198879;28;20418;-44
2023/07/13 09:55:25;;;;;;;2.20;1.23;;;26.70;40.20;;;;;;5194382;28;20457;-45
2023/07/13 09:57:56;;;;;;;4.60;1.87;;;26.80;40.00;;;;;;5185868;28;20465;-45
2023/07/13 10:00:29;;;;;;;6.13;2.30;;;26.60;40.10;;;;;;5201850;28;20427;-44
2023/07/13 10:03:25;;;;;;;3.90;2.07;;;26.70;40.40;;;;;;5199789;28;20828;-43
2023/07/13 10:06:10;;;;;;;2.70;1.90;;;26.80;40.50;;;;;;5198752;28;20493;-44
2023/07/13 10:08:41;;;;;;;4.70;2.70;;;26.90;40.70;;;;;;5201604;28;20547;-44
2023/07/13 10:11:16;;;;;;;2.27;2.17;;;27.10;40.40;;;;;;5182418;28;20521;-44
2023/07/13 10:13:52;;;;;;;6.53;4.47;;;27.00;40.10;;;;;;5185262;28;20658;-45
2023/07/13 10:16:27;;;;;;;2.47;2.17;;;26.70;40.10;;;;;;5201939;28;20798;-45
2023/07/13 10:19:01;;;;;;;5.60;2.33;;;26.80;41.00;;;;;;5188572;28;20430;-43
2023/07/13 10:21:59;;;;;;;3.73;1.50;;;27.20;41.10;;;;;;5196581;28;20946;-44
2023/07/13 10:24:32;;;;;;;2.30;2.10;;;27.40;40.10;;;;;;5189942;28;20971;-44
2023/07/13 10:27:07;;;;;;;2.50;2.40;;;27.40;40.00;;;;;;5201523;28;20446;-43
2023/07/13 10:29:43;;;;;;;3.27;2.03;;;27.30;40.20;;;;;;5184503;28;20959;-45
2023/07/13 10:32:14;;;;;;;1.70;1.60;;;26.90;40.80;;;;;;5196854;28;20410;-45
2023/07/13 10:34:47;;;;;;;2.77;1.27;;;27.00;41.00;;;;;;5204146;28;20464;-45
2023/07/13 10:37:36;;;;;;;4.30;2.90;;;27.20;40.80;;;;;;5202404;28;20184;-44
2023/07/13 10:40:15;;;;;;;8.87;4.97;;;27.40;40.80;;;;;;5196539;28;20492;-45
2023/07/13 10:42:50;;;;;;;2.70;2.00;;;27.40;40.60;;;;;;5179236;28;20441;-43
2023/07/13 10:45:23;;;;;;;2.83;2.33;;;27.30;40.60;;;;;;5200418;28;20441;-44
2023/07/13 10:47:56;;;;;;;30.20;16.93;;;27.10;40.70;;;;;;5197489;28;20584;-46
2023/07/13 10:50:32;;;;;;;4.47;3.50;;;26.90;40.80;;;;;;5186378;28;20458;-43
2023/07/13 10:53:20;;;;;;;3.10;2.37;;;26.90;41.20;;;;;;5207931;28;20878;-45
2023/07/13 10:55:51;;;;;;;2.60;2.07;;;26.90;41.00;;;;;;5187093;28;20445;-44
2023/07/13 10:58:27;;;;;;;11.23;5.60;;;27.10;40.60;;;;;;5200561;28;20438;-44
2023/07/13 11:01:18;;;;;;;8.27;3.53;;;27.10;39.70;;;;;;5195741;28;20203;-43
2023/07/13 11:04:03;;;;;;;2.30;1.80;;;27.20;40.30;;;;;;5195931;28;20451;-45
2023/07/13 11:06:41;;;;;;;7.83;3.50;;;27.10;40.20;;;;;;5188904;28;20433;-43
2023/07/13 11:09:32;;;;;;;3.90;3.03;;;26.60;40.70;;;;;;5186666;28;20493;-44
2023/07/13 11:12:09;;;;;;;4.03;2.93;;;26.60;41.10;;;;;;5194894;28;20516;-44
2023/07/13 11:15:02;;;;;;;2.80;2.60;;;26.50;41.20;;;;;;5204762;28;20438;-43
2023/07/13 11:17:35;;;;;;;1.70;1.70;;;26.60;42.00;;;;;;5203898;28;20466;-44
2023/07/13 11:20:14;;;;;;;3.43;2.10;;;26.80;41.40;;;;;;5200123;28;20512;-43
2023/07/13 11:23:09;;;;;;;1.63;1.53;;;26.60;40.40;;;;;;5178050;28;20520;-42
2023/07/13 11:25:40;;;;;;;8.90;4.53;;;26.20;40.90;;;;;;5205941;28;20456;-45
2023/07/13 11:28:15;;;;;;;4.57;3.80;;;26.20;41.00;;;;;;5209032;28;20491;-48
2023/07/13 11:30:55;;;;;;;7.10;3.30;;;26.30;41.20;;;;;;5182122;28;20461;-43
2023/07/13 11:33:50;;;;;;;5.40;3.97;;;26.50;40.80;;;;;;5199346;28;20455;-43
2023/07/13 11:36:24;;;;;;;3.80;2.70;;;26.60;40.30;;;;;;5203974;28;20545;-43
2023/07/13 11:39:00;;;;;;;3.37;2.53;;;26.70;40.60;;;;;;5189452;28;20462;-43
2023/07/13 11:41:36;;;;;;;4.03;3.10;;;26.60;40.60;;;;;;5206805;28;20437;-43
2023/07/13 11:44:17;;;;;;;5.13;2.60;;;26.60;39.80;;;;;;5201244;28;20430;-43
2023/07/13 11:46:56;;;;;;;4.37;4.07;;;26.80;38.80;;;;;;5203121;28;20420;-43
2023/07/13 11:49:29;;;;;;;3.63;2.83;;;26.80;37.90;;;;;;5195141;28;20508;-44
2023/07/13 11:52:02;;;;;;;1.67;1.57;;;26.90;37.40;;;;;;5185297;28;20925;-44
2023/07/13 11:54:43;;;;;;;2.37;2.17;;;27.00;38.00;;;;;;5184150;28;20477;-44
2023/07/13 11:57:26;;;;;;;2.20;2.10;;;27.00;37.60;;;;;;5190099;28;20439;-44
2023/07/13 11:59:59;;;;;;;1.63;1.53;;;26.90;37.30;;;;;;5189602;28;20438;-43
2023/07/13 12:02:33;;;;;;;3.87;2.13;;;26.90;36.90;;;;;;5210872;28;20419;-44
2023/07/13 12:05:06;;;;;;;2.80;2.30;;;26.70;37.40;;;;;;5194081;28;20736;-43
2023/07/13 12:07:38;;;;;;;5.63;3.10;;;26.70;38.00;;;;;;5205975;28;20445;-43
2023/07/13 12:10:11;;;;;;;2.83;2.60;;;26.50;38.30;;;;;;5198609;28;20458;-44
2023/07/13 12:13:00;;;;;;;4.20;2.20;;;26.10;38.90;;;;;;5206887;28;20777;-43
2023/07/13 12:15:48;;;;;;;1.90;1.80;;;26.10;39.50;;;;;;5210155;28;20430;-43
2023/07/13 12:18:28;;;;;;;2.93;2.20;;;26.20;39.00;;;;;;5210187;28;20517;-45
2023/07/13 12:21:00;;;;;;;4.03;1.73;;;26.40;38.80;;;;;;5200476;28;20426;-43
2023/07/13 12:23:35;;;;;;;2.10;1.70;;;26.30;38.60;;;;;;5192572;28;20434;-45
2023/07/13 12:26:09;;;;;;;5.10;2.10;;;26.00;38.80;;;;;;5192267;28;20428;-44
2023/07/13 12:28:46;;;;;;;2.53;2.13;;;25.80;40.10;;;;;;5188840;28;20465;-44
2023/07/13 12:31:31;;;;;;;6.77;2.13;;;25.50;40.30;;;;;;5192142;28;20434;-44
2023/07/13 12:34:11;;;;;;;1.90;1.57;;;25.50;41.10;;;;;;5197727;28;20454;-44
2023/07/13 12:36:52;;;;;;;13.87;1.87;;;25.80;41.00;;;;;;5192535;28;20528;-43
2023/07/13 12:39:45;;;;;;;1.70;1.60;;;26.00;40.80;;;;;;5191212;28;20445;-44
2023/07/13 12:42:24;;;;;;;2.97;1.93;;;26.10;40.30;;;;;;5190530;28;20467;-43
2023/07/13 12:44:59;;;;;;;1.90;1.40;;;26.20;39.80;;;;;;5206720;28;20462;-43
2023/07/13 12:47:38;;;;;;;1.70;1.60;;;26.30;38.70;;;;;;5205792;28;20452;-44
2023/07/13 12:50:16;;;;;;;6.43;2.57;;;26.40;38.90;;;;;;5201362;28;20465;-42
2023/07/13 12:53:03;;;;;;;2.97;1.87;;;26.40;38.50;;;;;;5180356;28;20496;-43
2023/07/13 12:55:47;;;;;;;3.50;1.60;;;26.60;37.60;;;;;;5208448;28;20520;-43
2023/07/13 12:58:25;;;;;;;4.07;1.80;;;26.50;37.90;;;;;;5184537;28;20950;-43
2023/07/13 13:01:02;;;;;;;6.40;2.10;;;26.50;38.40;;;;;;5202866;28;20433;-43
2023/07/13 13:03:36;;;;;;;1.80;1.70;;;26.30;36.20;;;;;;5201822;28;20447;-44
2023/07/13 13:06:24;;;;;;;1.30;1.20;;;26.20;36.30;;;;;;5204380;28;20435;-43
2023/07/13 13:08:58;;;;;;;4.63;1.63;;;26.10;37.00;;;;;;5198412;28;20463;-44
2023/07/13 13:11:30;;;;;;;1.67;1.47;;;25.90;37.80;;;;;;5199646;28;20433;-43
2023/07/13 13:14:01;;;;;;;4.57;2.30;;;26.00;38.30;;;;;;5208470;28;20473;-43
2023/07/13 13:16:43;;;;;;;1.80;1.33;;;26.10;38.10;;;;;;5205505;28;20437;-42
2023/07/13 13:19:21;;;;;;;0.90;0.90;;;26.10;37.60;;;;;;5205757;28;20211;-43